sensor_id;sensor_type;location;lat;lon;timestamp;temperature;humidity
62573;DHT22;48626;51.678;5.806;2023-08-12T00:02:13;23.10;99.90
62573;DHT22;48626;51.678;5.806;2023-08-12T00:04:41;23.10;99.90
62573;DHT22;48626;51.678;5.806;2023-08-12T00:07:15;23.20;99.90
62573;DHT22;48626;51.678;5.806;2023-08-12T00:09:40;23.10;99.90
62573;DHT22;48626;51.678;5.806;2023-08-12T00:12:06;23.10;99.90
62573;DHT22;48626;51.678;5.806;2023-08-12T00:14:37;23.10;99.90
62573;DHT22;48626;51.678;5.806;2023-08-12T00:17:05;23.10;99.90
62573;DHT22;48626;51.678;5.806;2023-08-12T00:19:33;23.10;99.90
62573;DHT22;48626;51.678;5.806;2023-08-12T00:21:59;23.10;99.90
62573;DHT22;48626;51.678;5.806;2023-08-12T00:24:33;23.10;99.90
62573;DHT22;48626;51.678;5.806;2023-08-12T00:26:59;23.00;99.90
62573;DHT22;48626;51.678;5.806;2023-08-12T00:29:27;23.00;99.90
62573;DHT22;48626;51.678;5.806;2023-08-12T00:31:53;23.00;99.90
62573;DHT22;48626;51.678;5.806;2023-08-12T00:34:18;23.00;99.90
62573;DHT22;48626;51.678;5.806;2023-08-12T00:36:44;23.00;99.90
62573;DHT22;48626;51.678;5.806;2023-08-12T00:39:10;23.00;99.90
62573;DHT22;48626;51.678;5.806;2023-08-12T00:41:38;23.00;99.90
62573;DHT22;48626;51.678;5.806;2023-08-12T00:44:07;23.00;99.90
62573;DHT22;48626;51.678;5.806;2023-08-12T00:46:36;23.00;99.90
62573;DHT22;48626;51.678;5.806;2023-08-12T00:49:24;23.00;99.90
62573;DHT22;48626;51.678;5.806;2023-08-12T01:02:34;22.80;99.90
62573;DHT22;48626;51.678;5.806;2023-08-12T01:08:30;22.80;99.90
62573;DHT22;48626;51.678;5.806;2023-08-12T01:15:23;22.70;99.90
62573;DHT22;48626;51.678;5.806;2023-08-12T01:55:44;22.40;99.90
62573;DHT22;48626;51.678;5.806;2023-08-12T02:08:18;22.40;99.90
62573;DHT22;48626;51.678;5.806;2023-08-12T02:14:16;22.40;99.90
62573;DHT22;48626;51.678;5.806;2023-08-12T02:30:30;22.30;99.90
62573;DHT22;48626;51.678;5.806;2023-08-12T02:36:19;22.30;99.90
62573;DHT22;48626;51.678;5.806;2023-08-12T02:42:10;22.30;99.90
62573;DHT22;48626;51.678;5.806;2023-08-12T02:48:23;22.30;99.90
62573;DHT22;48626;51.678;5.806;2023-08-12T02:50:48;22.30;99.90
62573;DHT22;48626;51.678;5.806;2023-08-12T02:53:15;22.20;99.90
62573;DHT22;48626;51.678;5.806;2023-08-12T02:55:58;22.30;99.90
62573;DHT22;48626;51.678;5.806;2023-08-12T03:02:21;22.30;99.90
62573;DHT22;48626;51.678;5.806;2023-08-12T03:08:42;22.30;99.90
62573;DHT22;48626;51.678;5.806;2023-08-12T03:18:01;22.20;99.90
62573;DHT22;48626;51.678;5.806;2023-08-12T04:05:10;22.00;99.90
62573;DHT22;48626;51.678;5.806;2023-08-12T04:07:57;22.00;99.90
62573;DHT22;48626;51.678;5.806;2023-08-12T04:10:22;22.00;99.90
62573;DHT22;48626;51.678;5.806;2023-08-12T04:12:48;22.00;99.90
62573;DHT22;48626;51.678;5.806;2023-08-12T04:33:00;22.00;99.90
62573;DHT22;48626;51.678;5.806;2023-08-12T04:42:30;21.90;99.90
62573;DHT22;48626;51.678;5.806;2023-08-12T04:48:18;22.00;99.90
62573;DHT22;48626;51.678;5.806;2023-08-12T04:54:08;22.00;99.90
62573;DHT22;48626;51.678;5.806;2023-08-12T05:17:48;21.80;99.90
62573;DHT22;48626;51.678;5.806;2023-08-12T05:20:14;21.70;99.90
62573;DHT22;48626;51.678;5.806;2023-08-12T05:22:40;21.70;99.90
62573;DHT22;48626;51.678;5.806;2023-08-12T05:25:06;21.70;99.90
62573;DHT22;48626;51.678;5.806;2023-08-12T05:27:32;21.60;99.90
62573;DHT22;48626;51.678;5.806;2023-08-12T05:29:58;21.60;99.90
62573;DHT22;48626;51.678;5.806;2023-08-12T05:32:23;21.50;99.90
62573;DHT22;48626;51.678;5.806;2023-08-12T05:34:52;21.50;99.90
62573;DHT22;48626;51.678;5.806;2023-08-12T05:37:20;21.40;99.90
62573;DHT22;48626;51.678;5.806;2023-08-12T05:39:46;21.40;99.90
62573;DHT22;48626;51.678;5.806;2023-08-12T05:42:12;21.40;99.90
62573;DHT22;48626;51.678;5.806;2023-08-12T05:44:37;21.30;99.90
62573;DHT22;48626;51.678;5.806;2023-08-12T05:47:03;21.20;99.90
62573;DHT22;48626;51.678;5.806;2023-08-12T05:49:29;21.20;99.90
62573;DHT22;48626;51.678;5.806;2023-08-12T05:51:55;21.20;99.90
62573;DHT22;48626;51.678;5.806;2023-08-12T05:54:20;21.20;99.90
62573;DHT22;48626;51.678;5.806;2023-08-12T05:56:46;21.20;99.90
62573;DHT22;48626;51.678;5.806;2023-08-12T05:59:12;21.20;99.90
62573;DHT22;48626;51.678;5.806;2023-08-12T06:01:37;21.20;99.90
62573;DHT22;48626;51.678;5.806;2023-08-12T06:04:03;21.10;99.90
62573;DHT22;48626;51.678;5.806;2023-08-12T06:06:29;21.10;99.90
62573;DHT22;48626;51.678;5.806;2023-08-12T06:08:54;21.10;99.90
62573;DHT22;48626;51.678;5.806;2023-08-12T06:11:20;21.10;99.90
62573;DHT22;48626;51.678;5.806;2023-08-12T06:13:46;21.10;99.90
62573;DHT22;48626;51.678;5.806;2023-08-12T06:16:11;21.10;99.90
62573;DHT22;48626;51.678;5.806;2023-08-12T06:18:37;21.10;99.90
62573;DHT22;48626;51.678;5.806;2023-08-12T06:21:03;21.10;99.90
62573;DHT22;48626;51.678;5.806;2023-08-12T06:23:28;21.10;99.90
62573;DHT22;48626;51.678;5.806;2023-08-12T06:25:55;21.10;99.90
62573;DHT22;48626;51.678;5.806;2023-08-12T06:28:21;21.10;99.90
62573;DHT22;48626;51.678;5.806;2023-08-12T06:30:47;21.10;99.90
62573;DHT22;48626;51.678;5.806;2023-08-12T06:33:14;21.20;99.90
62573;DHT22;48626;51.678;5.806;2023-08-12T06:35:40;21.20;99.90
62573;DHT22;48626;51.678;5.806;2023-08-12T06:38:06;21.20;99.90
62573;DHT22;48626;51.678;5.806;2023-08-12T06:40:33;21.30;99.90
62573;DHT22;48626;51.678;5.806;2023-08-12T06:43:06;21.30;99.90
62573;DHT22;48626;51.678;5.806;2023-08-12T06:45:36;21.30;99.90
62573;DHT22;48626;51.678;5.806;2023-08-12T06:48:02;21.40;99.90
62573;DHT22;48626;51.678;5.806;2023-08-12T06:50:29;21.40;99.90
62573;DHT22;48626;51.678;5.806;2023-08-12T06:52:56;21.40;99.90
62573;DHT22;48626;51.678;5.806;2023-08-12T06:55:21;21.40;99.90
62573;DHT22;48626;51.678;5.806;2023-08-12T06:57:47;21.40;99.90
62573;DHT22;48626;51.678;5.806;2023-08-12T07:00:15;21.40;99.90
62573;DHT22;48626;51.678;5.806;2023-08-12T07:02:41;21.30;99.90
62573;DHT22;48626;51.678;5.806;2023-08-12T07:05:08;21.40;99.90
62573;DHT22;48626;51.678;5.806;2023-08-12T07:07:34;21.40;99.90
62573;DHT22;48626;51.678;5.806;2023-08-12T07:09:59;21.30;99.90
62573;DHT22;48626;51.678;5.806;2023-08-12T07:12:25;21.30;99.90
62573;DHT22;48626;51.678;5.806;2023-08-12T07:14:51;21.40;99.90
62573;DHT22;48626;51.678;5.806;2023-08-12T07:17:17;21.40;99.90
62573;DHT22;48626;51.678;5.806;2023-08-12T07:19:43;21.40;99.90
62573;DHT22;48626;51.678;5.806;2023-08-12T07:22:09;21.50;99.90
62573;DHT22;48626;51.678;5.806;2023-08-12T07:24:34;21.50;99.90
62573;DHT22;48626;51.678;5.806;2023-08-12T07:27:00;21.50;99.90
62573;DHT22;48626;51.678;5.806;2023-08-12T07:29:26;21.60;99.90
62573;DHT22;48626;51.678;5.806;2023-08-12T07:31:52;21.70;99.90
62573;DHT22;48626;51.678;5.806;2023-08-12T07:34:18;21.70;99.90
62573;DHT22;48626;51.678;5.806;2023-08-12T07:36:44;21.80;99.90
62573;DHT22;48626;51.678;5.806;2023-08-12T07:39:10;21.90;99.90
62573;DHT22;48626;51.678;5.806;2023-08-12T07:41:36;21.90;99.90
62573;DHT22;48626;51.678;5.806;2023-08-12T07:44:03;21.90;99.90
62573;DHT22;48626;51.678;5.806;2023-08-12T07:46:29;22.00;99.90
62573;DHT22;48626;51.678;5.806;2023-08-12T07:48:56;22.00;99.90
62573;DHT22;48626;51.678;5.806;2023-08-12T07:51:21;22.00;99.90
62573;DHT22;48626;51.678;5.806;2023-08-12T07:53:47;22.00;99.90
62573;DHT22;48626;51.678;5.806;2023-08-12T07:56:13;22.00;99.90
62573;DHT22;48626;51.678;5.806;2023-08-12T07:58:38;22.00;99.90
62573;DHT22;48626;51.678;5.806;2023-08-12T08:01:07;22.00;99.90
62573;DHT22;48626;51.678;5.806;2023-08-12T08:03:34;22.00;99.90
62573;DHT22;48626;51.678;5.806;2023-08-12T08:06:00;22.00;99.90
62573;DHT22;48626;51.678;5.806;2023-08-12T08:08:26;22.00;99.90
62573;DHT22;48626;51.678;5.806;2023-08-12T08:10:51;22.10;99.90
62573;DHT22;48626;51.678;5.806;2023-08-12T08:13:17;22.10;99.90
62573;DHT22;48626;51.678;5.806;2023-08-12T08:15:45;22.10;99.90
62573;DHT22;48626;51.678;5.806;2023-08-12T08:18:11;22.20;99.90
62573;DHT22;48626;51.678;5.806;2023-08-12T08:20:37;22.20;99.90
62573;DHT22;48626;51.678;5.806;2023-08-12T08:23:02;22.20;99.90
62573;DHT22;48626;51.678;5.806;2023-08-12T08:25:28;22.30;99.90
62573;DHT22;48626;51.678;5.806;2023-08-12T08:27:54;22.30;99.90
62573;DHT22;48626;51.678;5.806;2023-08-12T08:30:19;22.30;99.90
62573;DHT22;48626;51.678;5.806;2023-08-12T08:32:45;22.30;99.90
62573;DHT22;48626;51.678;5.806;2023-08-12T08:35:12;22.30;99.90
62573;DHT22;48626;51.678;5.806;2023-08-12T08:37:37;22.40;99.90
62573;DHT22;48626;51.678;5.806;2023-08-12T08:40:03;22.30;99.90
62573;DHT22;48626;51.678;5.806;2023-08-12T08:42:29;22.30;99.90
62573;DHT22;48626;51.678;5.806;2023-08-12T08:44:58;22.30;99.90
62573;DHT22;48626;51.678;5.806;2023-08-12T08:47:29;22.30;99.90
62573;DHT22;48626;51.678;5.806;2023-08-12T08:49:55;22.40;99.90
62573;DHT22;48626;51.678;5.806;2023-08-12T08:52:24;22.50;99.90
62573;DHT22;48626;51.678;5.806;2023-08-12T08:54:50;22.50;99.90
62573;DHT22;48626;51.678;5.806;2023-08-12T08:57:17;22.50;99.90
62573;DHT22;48626;51.678;5.806;2023-08-12T08:59:43;22.60;99.90
62573;DHT22;48626;51.678;5.806;2023-08-12T09:02:16;22.70;99.90
62573;DHT22;48626;51.678;5.806;2023-08-12T09:04:44;22.70;99.90
62573;DHT22;48626;51.678;5.806;2023-08-12T09:07:10;22.80;99.90
62573;DHT22;48626;51.678;5.806;2023-08-12T09:09:37;22.80;99.90
62573;DHT22;48626;51.678;5.806;2023-08-12T09:12:03;22.80;99.90
62573;DHT22;48626;51.678;5.806;2023-08-12T09:14:29;22.70;99.90
62573;DHT22;48626;51.678;5.806;2023-08-12T09:16:56;22.80;99.90
62573;DHT22;48626;51.678;5.806;2023-08-12T09:19:22;22.80;99.90
62573;DHT22;48626;51.678;5.806;2023-08-12T09:21:54;22.80;99.90
62573;DHT22;48626;51.678;5.806;2023-08-12T09:24:27;22.90;99.90
62573;DHT22;48626;51.678;5.806;2023-08-12T09:26:53;22.80;99.90
62573;DHT22;48626;51.678;5.806;2023-08-12T09:29:30;22.80;99.90
62573;DHT22;48626;51.678;5.806;2023-08-12T09:32:06;22.80;99.90
62573;DHT22;48626;51.678;5.806;2023-08-12T09:34:32;22.90;99.90
62573;DHT22;48626;51.678;5.806;2023-08-12T09:36:58;22.90;99.90
62573;DHT22;48626;51.678;5.806;2023-08-12T09:39:24;23.00;99.90
62573;DHT22;48626;51.678;5.806;2023-08-12T09:41:49;23.00;99.90
62573;DHT22;48626;51.678;5.806;2023-08-12T09:44:16;23.00;99.90
62573;DHT22;48626;51.678;5.806;2023-08-12T09:46:42;22.90;99.90
62573;DHT22;48626;51.678;5.806;2023-08-12T09:49:08;22.90;99.90
62573;DHT22;48626;51.678;5.806;2023-08-12T09:51:35;22.90;99.90
62573;DHT22;48626;51.678;5.806;2023-08-12T09:54:02;23.00;99.90
62573;DHT22;48626;51.678;5.806;2023-08-12T09:56:32;22.90;99.90
62573;DHT22;48626;51.678;5.806;2023-08-12T09:58:59;22.90;99.90
62573;DHT22;48626;51.678;5.806;2023-08-12T10:01:28;22.90;99.90
62573;DHT22;48626;51.678;5.806;2023-08-12T10:03:54;22.80;99.90
62573;DHT22;48626;51.678;5.806;2023-08-12T10:06:20;22.80;99.90
62573;DHT22;48626;51.678;5.806;2023-08-12T10:08:47;22.90;99.90
62573;DHT22;48626;51.678;5.806;2023-08-12T10:11:14;23.00;99.90
62573;DHT22;48626;51.678;5.806;2023-08-12T10:13:43;23.30;99.90
62573;DHT22;48626;51.678;5.806;2023-08-12T10:16:09;23.60;99.90
62573;DHT22;48626;51.678;5.806;2023-08-12T10:18:37;23.90;99.90
62573;DHT22;48626;51.678;5.806;2023-08-12T10:21:04;24.10;99.90
62573;DHT22;48626;51.678;5.806;2023-08-12T10:23:31;24.10;99.90
62573;DHT22;48626;51.678;5.806;2023-08-12T10:25:58;24.00;99.90
62573;DHT22;48626;51.678;5.806;2023-08-12T10:28:25;24.00;99.90
62573;DHT22;48626;51.678;5.806;2023-08-12T10:30:51;24.00;99.90
62573;DHT22;48626;51.678;5.806;2023-08-12T10:33:18;24.00;99.90
62573;DHT22;48626;51.678;5.806;2023-08-12T10:35:48;24.20;99.90
62573;DHT22;48626;51.678;5.806;2023-08-12T10:38:17;24.40;99.90
62573;DHT22;48626;51.678;5.806;2023-08-12T10:40:44;24.50;99.90
62573;DHT22;48626;51.678;5.806;2023-08-12T10:43:12;24.50;99.90
62573;DHT22;48626;51.678;5.806;2023-08-12T10:45:47;24.40;99.90
62573;DHT22;48626;51.678;5.806;2023-08-12T10:48:18;24.30;99.90
62573;DHT22;48626;51.678;5.806;2023-08-12T10:50:48;24.20;99.90
62573;DHT22;48626;51.678;5.806;2023-08-12T10:53:33;24.10;99.90
62573;DHT22;48626;51.678;5.806;2023-08-12T10:56:03;24.10;99.90
62573;DHT22;48626;51.678;5.806;2023-08-12T10:58:44;24.30;99.90
62573;DHT22;48626;51.678;5.806;2023-08-12T11:01:17;24.70;99.90
62573;DHT22;48626;51.678;5.806;2023-08-12T11:03:44;24.90;99.90
62573;DHT22;48626;51.678;5.806;2023-08-12T11:06:15;25.00;99.90
62573;DHT22;48626;51.678;5.806;2023-08-12T11:08:53;24.90;99.90
62573;DHT22;48626;51.678;5.806;2023-08-12T11:11:23;24.80;99.90
62573;DHT22;48626;51.678;5.806;2023-08-12T11:13:58;24.80;99.90
62573;DHT22;48626;51.678;5.806;2023-08-12T11:16:37;24.70;99.90
62573;DHT22;48626;51.678;5.806;2023-08-12T11:19:03;24.70;99.90
62573;DHT22;48626;51.678;5.806;2023-08-12T11:21:29;24.60;99.90
62573;DHT22;48626;51.678;5.806;2023-08-12T11:23:55;24.60;99.90
62573;DHT22;48626;51.678;5.806;2023-08-12T11:26:23;24.50;99.90
62573;DHT22;48626;51.678;5.806;2023-08-12T11:28:49;24.50;99.90
62573;DHT22;48626;51.678;5.806;2023-08-12T11:31:16;24.50;99.90
62573;DHT22;48626;51.678;5.806;2023-08-12T11:33:43;24.70;99.90
62573;DHT22;48626;51.678;5.806;2023-08-12T11:36:12;25.00;99.90
62573;DHT22;48626;51.678;5.806;2023-08-12T11:38:42;25.30;99.90
62573;DHT22;48626;51.678;5.806;2023-08-12T11:41:08;25.40;99.90
62573;DHT22;48626;51.678;5.806;2023-08-12T11:43:37;25.30;99.90
62573;DHT22;48626;51.678;5.806;2023-08-12T11:46:03;25.50;99.90
62573;DHT22;48626;51.678;5.806;2023-08-12T11:48:28;25.50;99.90
62573;DHT22;48626;51.678;5.806;2023-08-12T11:50:55;25.70;99.90
62573;DHT22;48626;51.678;5.806;2023-08-12T11:53:23;26.00;99.90
62573;DHT22;48626;51.678;5.806;2023-08-12T11:55:49;26.40;99.90
62573;DHT22;48626;51.678;5.806;2023-08-12T11:58:15;26.50;99.90
62573;DHT22;48626;51.678;5.806;2023-08-12T12:00:48;26.70;99.90
62573;DHT22;48626;51.678;5.806;2023-08-12T12:03:16;26.70;99.90
62573;DHT22;48626;51.678;5.806;2023-08-12T12:05:55;26.50;99.90
62573;DHT22;48626;51.678;5.806;2023-08-12T12:08:24;26.50;99.90
62573;DHT22;48626;51.678;5.806;2023-08-12T12:10:50;26.50;99.90
62573;DHT22;48626;51.678;5.806;2023-08-12T12:13:17;26.40;99.90
62573;DHT22;48626;51.678;5.806;2023-08-12T12:15:45;26.30;99.90
62573;DHT22;48626;51.678;5.806;2023-08-12T12:18:15;26.10;99.90
62573;DHT22;48626;51.678;5.806;2023-08-12T12:21:19;25.90;99.90
62573;DHT22;48626;51.678;5.806;2023-08-12T12:24:07;26.10;99.90
62573;DHT22;48626;51.678;5.806;2023-08-12T12:26:44;26.30;99.90
62573;DHT22;48626;51.678;5.806;2023-08-12T12:29:15;26.40;99.90
62573;DHT22;48626;51.678;5.806;2023-08-12T12:31:52;26.40;99.90
62573;DHT22;48626;51.678;5.806;2023-08-12T12:34:47;26.30;99.90
62573;DHT22;48626;51.678;5.806;2023-08-12T12:37:23;26.30;99.90
62573;DHT22;48626;51.678;5.806;2023-08-12T12:40:04;26.20;99.90
62573;DHT22;48626;51.678;5.806;2023-08-12T12:42:35;26.20;99.90
62573;DHT22;48626;51.678;5.806;2023-08-12T12:45:07;26.10;99.90
62573;DHT22;48626;51.678;5.806;2023-08-12T12:47:40;26.10;99.90
62573;DHT22;48626;51.678;5.806;2023-08-12T12:53:23;26.00;99.90
62573;DHT22;48626;51.678;5.806;2023-08-12T12:56:06;26.00;99.90
62573;DHT22;48626;51.678;5.806;2023-08-12T12:58:47;26.10;99.90
62573;DHT22;48626;51.678;5.806;2023-08-12T13:01:32;26.20;99.90
62573;DHT22;48626;51.678;5.806;2023-08-12T13:04:03;26.60;99.90
62573;DHT22;48626;51.678;5.806;2023-08-12T13:06:39;27.00;99.90
62573;DHT22;48626;51.678;5.806;2023-08-12T13:09:32;27.40;99.90
62573;DHT22;48626;51.678;5.806;2023-08-12T13:15:09;27.80;99.90
62573;DHT22;48626;51.678;5.806;2023-08-12T13:17:47;27.90;99.90
62573;DHT22;48626;51.678;5.806;2023-08-12T13:20:25;28.00;99.90
62573;DHT22;48626;51.678;5.806;2023-08-12T13:23:10;28.30;99.90
62573;DHT22;48626;51.678;5.806;2023-08-12T13:26:03;28.50;99.90
62573;DHT22;48626;51.678;5.806;2023-08-12T13:28:47;28.40;99.90
62573;DHT22;48626;51.678;5.806;2023-08-12T13:31:23;28.20;99.90
62573;DHT22;48626;51.678;5.806;2023-08-12T13:33:59;28.30;99.90
62573;DHT22;48626;51.678;5.806;2023-08-12T13:36:38;28.00;99.90
62573;DHT22;48626;51.678;5.806;2023-08-12T13:39:11;28.40;99.90
62573;DHT22;48626;51.678;5.806;2023-08-12T13:41:45;28.10;99.90
62573;DHT22;48626;51.678;5.806;2023-08-12T13:44:16;27.80;99.90
62573;DHT22;48626;51.678;5.806;2023-08-12T13:49:30;27.20;99.90
62573;DHT22;48626;51.678;5.806;2023-08-12T13:52:18;27.00;99.90
62573;DHT22;48626;51.678;5.806;2023-08-12T13:55:00;26.80;99.90
62573;DHT22;48626;51.678;5.806;2023-08-12T14:00:12;26.40;99.90
62573;DHT22;48626;51.678;5.806;2023-08-12T14:02:41;26.20;99.90
62573;DHT22;48626;51.678;5.806;2023-08-12T14:05:10;26.10;99.90
62573;DHT22;48626;51.678;5.806;2023-08-12T14:07:39;26.00;99.90
62573;DHT22;48626;51.678;5.806;2023-08-12T14:10:15;26.00;99.90
62573;DHT22;48626;51.678;5.806;2023-08-12T14:12:41;25.90;99.90
62573;DHT22;48626;51.678;5.806;2023-08-12T14:15:07;25.80;99.90
62573;DHT22;48626;51.678;5.806;2023-08-12T14:17:32;25.70;99.90
62573;DHT22;48626;51.678;5.806;2023-08-12T14:19:58;25.60;99.90
62573;DHT22;48626;51.678;5.806;2023-08-12T14:22:25;25.50;99.90
62573;DHT22;48626;51.678;5.806;2023-08-12T14:24:51;25.50;99.90
62573;DHT22;48626;51.678;5.806;2023-08-12T14:27:16;25.50;99.90
62573;DHT22;48626;51.678;5.806;2023-08-12T14:29:45;25.70;99.90
62573;DHT22;48626;51.678;5.806;2023-08-12T14:32:11;25.60;99.90
62573;DHT22;48626;51.678;5.806;2023-08-12T14:34:37;25.90;99.90
62573;DHT22;48626;51.678;5.806;2023-08-12T14:37:03;26.30;99.90
62573;DHT22;48626;51.678;5.806;2023-08-12T14:39:29;26.00;99.90
62573;DHT22;48626;51.678;5.806;2023-08-12T14:41:54;26.20;99.90
62573;DHT22;48626;51.678;5.806;2023-08-12T14:44:20;26.00;99.90
62573;DHT22;48626;51.678;5.806;2023-08-12T14:46:46;26.50;99.90
62573;DHT22;48626;51.678;5.806;2023-08-12T14:49:11;27.50;99.90
62573;DHT22;48626;51.678;5.806;2023-08-12T14:51:37;28.50;99.90
62573;DHT22;48626;51.678;5.806;2023-08-12T14:54:03;29.40;99.90
62573;DHT22;48626;51.678;5.806;2023-08-12T14:56:28;30.10;99.90
62573;DHT22;48626;51.678;5.806;2023-08-12T14:58:54;30.60;99.90
62573;DHT22;48626;51.678;5.806;2023-08-12T15:01:20;30.90;99.90
62573;DHT22;48626;51.678;5.806;2023-08-12T15:03:47;31.30;99.90
62573;DHT22;48626;51.678;5.806;2023-08-12T15:06:12;31.60;99.90
62573;DHT22;48626;51.678;5.806;2023-08-12T15:08:39;31.90;99.90
62573;DHT22;48626;51.678;5.806;2023-08-12T15:11:05;32.20;99.90
62573;DHT22;48626;51.678;5.806;2023-08-12T15:13:31;32.40;99.90
62573;DHT22;48626;51.678;5.806;2023-08-12T15:15:57;32.50;99.90
62573;DHT22;48626;51.678;5.806;2023-08-12T15:18:23;32.70;99.90
62573;DHT22;48626;51.678;5.806;2023-08-12T15:20:49;32.90;99.90
62573;DHT22;48626;51.678;5.806;2023-08-12T15:23:15;32.90;99.90
62573;DHT22;48626;51.678;5.806;2023-08-12T15:25:43;32.50;99.90
62573;DHT22;48626;51.678;5.806;2023-08-12T15:28:09;32.30;99.90
62573;DHT22;48626;51.678;5.806;2023-08-12T15:30:35;32.70;99.90
62573;DHT22;48626;51.678;5.806;2023-08-12T15:33:01;33.00;99.90
62573;DHT22;48626;51.678;5.806;2023-08-12T15:35:27;33.30;99.90
62573;DHT22;48626;51.678;5.806;2023-08-12T15:37:53;33.50;99.90
62573;DHT22;48626;51.678;5.806;2023-08-12T15:40:20;33.50;99.90
62573;DHT22;48626;51.678;5.806;2023-08-12T15:42:45;33.00;99.90
62573;DHT22;48626;51.678;5.806;2023-08-12T15:45:11;32.60;99.90
62573;DHT22;48626;51.678;5.806;2023-08-12T15:47:39;31.80;99.90
62573;DHT22;48626;51.678;5.806;2023-08-12T15:50:07;30.90;99.90
62573;DHT22;48626;51.678;5.806;2023-08-12T15:52:32;29.90;99.90
62573;DHT22;48626;51.678;5.806;2023-08-12T15:55:03;29.20;99.90
62573;DHT22;48626;51.678;5.806;2023-08-12T15:57:30;28.60;99.90
62573;DHT22;48626;51.678;5.806;2023-08-12T15:59:56;28.20;99.90
62573;DHT22;48626;51.678;5.806;2023-08-12T16:02:21;28.60;99.90
62573;DHT22;48626;51.678;5.806;2023-08-12T16:04:47;28.60;99.90
62573;DHT22;48626;51.678;5.806;2023-08-12T16:07:13;28.30;99.90
62573;DHT22;48626;51.678;5.806;2023-08-12T16:09:39;28.20;99.90
62573;DHT22;48626;51.678;5.806;2023-08-12T16:12:04;28.60;99.90
62573;DHT22;48626;51.678;5.806;2023-08-12T16:14:30;29.60;99.90
62573;DHT22;48626;51.678;5.806;2023-08-12T16:16:56;30.30;99.90
62573;DHT22;48626;51.678;5.806;2023-08-12T16:19:21;30.40;99.90
62573;DHT22;48626;51.678;5.806;2023-08-12T16:21:47;31.00;99.90
62573;DHT22;48626;51.678;5.806;2023-08-12T16:24:13;31.20;99.90
62573;DHT22;48626;51.678;5.806;2023-08-12T16:26:38;30.40;99.90
62573;DHT22;48626;51.678;5.806;2023-08-12T16:29:04;29.50;99.90
62573;DHT22;48626;51.678;5.806;2023-08-12T16:31:30;28.70;99.90
62573;DHT22;48626;51.678;5.806;2023-08-12T16:33:56;28.00;99.90
62573;DHT22;48626;51.678;5.806;2023-08-12T16:36:22;27.50;99.90
62573;DHT22;48626;51.678;5.806;2023-08-12T16:38:48;27.00;99.90
62573;DHT22;48626;51.678;5.806;2023-08-12T16:41:13;26.80;99.90
62573;DHT22;48626;51.678;5.806;2023-08-12T16:43:42;26.50;99.90
62573;DHT22;48626;51.678;5.806;2023-08-12T16:46:08;26.30;99.90
62573;DHT22;48626;51.678;5.806;2023-08-12T16:48:33;26.20;99.90
62573;DHT22;48626;51.678;5.806;2023-08-12T16:50:59;26.10;99.90
62573;DHT22;48626;51.678;5.806;2023-08-12T16:53:25;25.90;99.90
62573;DHT22;48626;51.678;5.806;2023-08-12T16:55:50;25.80;99.90
62573;DHT22;48626;51.678;5.806;2023-08-12T16:58:16;25.60;99.90
62573;DHT22;48626;51.678;5.806;2023-08-12T17:00:42;25.40;99.90
62573;DHT22;48626;51.678;5.806;2023-08-12T17:03:10;25.20;99.90
62573;DHT22;48626;51.678;5.806;2023-08-12T17:05:36;25.10;99.90
62573;DHT22;48626;51.678;5.806;2023-08-12T17:08:02;25.00;99.90
62573;DHT22;48626;51.678;5.806;2023-08-12T17:13:03;25.20;99.90
62573;DHT22;48626;51.678;5.806;2023-08-12T17:15:29;25.20;99.90
62573;DHT22;48626;51.678;5.806;2023-08-12T17:17:55;25.20;99.90
62573;DHT22;48626;51.678;5.806;2023-08-12T17:20:21;25.20;99.90
62573;DHT22;48626;51.678;5.806;2023-08-12T17:22:47;25.10;99.90
62573;DHT22;48626;51.678;5.806;2023-08-12T17:25:12;25.00;99.90
62573;DHT22;48626;51.678;5.806;2023-08-12T17:27:38;25.00;99.90
62573;DHT22;48626;51.678;5.806;2023-08-12T17:30:04;24.90;99.90
62573;DHT22;48626;51.678;5.806;2023-08-12T17:32:30;24.90;99.90
62573;DHT22;48626;51.678;5.806;2023-08-12T17:34:56;24.80;99.90
62573;DHT22;48626;51.678;5.806;2023-08-12T17:37:22;24.80;99.90
62573;DHT22;48626;51.678;5.806;2023-08-12T17:39:52;24.70;99.90
62573;DHT22;48626;51.678;5.806;2023-08-12T17:42:22;24.50;99.90
62573;DHT22;48626;51.678;5.806;2023-08-12T17:44:48;24.50;99.90
62573;DHT22;48626;51.678;5.806;2023-08-12T17:47:13;24.40;99.90
62573;DHT22;48626;51.678;5.806;2023-08-12T17:49:40;24.30;99.90
62573;DHT22;48626;51.678;5.806;2023-08-12T17:52:06;24.20;99.90
62573;DHT22;48626;51.678;5.806;2023-08-12T17:54:31;24.10;99.90
62573;DHT22;48626;51.678;5.806;2023-08-12T17:56:57;24.10;99.90
62573;DHT22;48626;51.678;5.806;2023-08-12T17:59:23;24.00;99.90
62573;DHT22;48626;51.678;5.806;2023-08-12T18:01:48;24.00;99.90
62573;DHT22;48626;51.678;5.806;2023-08-12T18:04:14;23.90;99.90
62573;DHT22;48626;51.678;5.806;2023-08-12T18:06:42;23.90;99.90
62573;DHT22;48626;51.678;5.806;2023-08-12T18:09:08;24.00;99.90
62573;DHT22;48626;51.678;5.806;2023-08-12T18:11:34;24.00;99.90
62573;DHT22;48626;51.678;5.806;2023-08-12T18:14:01;24.00;99.90
62573;DHT22;48626;51.678;5.806;2023-08-12T18:16:27;23.90;99.90
62573;DHT22;48626;51.678;5.806;2023-08-12T18:18:52;23.90;99.90
62573;DHT22;48626;51.678;5.806;2023-08-12T18:21:18;23.80;99.90
62573;DHT22;48626;51.678;5.806;2023-08-12T18:23:46;23.70;99.90
62573;DHT22;48626;51.678;5.806;2023-08-12T18:26:12;23.70;99.90
62573;DHT22;48626;51.678;5.806;2023-08-12T18:28:38;23.60;99.90
62573;DHT22;48626;51.678;5.806;2023-08-12T18:31:03;23.60;99.90
62573;DHT22;48626;51.678;5.806;2023-08-12T18:33:29;23.50;99.90
62573;DHT22;48626;51.678;5.806;2023-08-12T18:35:55;23.50;99.90
62573;DHT22;48626;51.678;5.806;2023-08-12T18:38:20;23.40;99.90
62573;DHT22;48626;51.678;5.806;2023-08-12T18:40:46;23.40;99.90
62573;DHT22;48626;51.678;5.806;2023-08-12T18:43:11;23.30;99.90
62573;DHT22;48626;51.678;5.806;2023-08-12T18:45:37;23.20;99.90
62573;DHT22;48626;51.678;5.806;2023-08-12T18:48:04;23.10;99.90
62573;DHT22;48626;51.678;5.806;2023-08-12T18:50:30;23.10;99.90
62573;DHT22;48626;51.678;5.806;2023-08-12T18:52:55;23.00;99.90
62573;DHT22;48626;51.678;5.806;2023-08-12T18:55:21;22.90;99.90
62573;DHT22;48626;51.678;5.806;2023-08-12T18:57:48;22.90;99.90
62573;DHT22;48626;51.678;5.806;2023-08-12T19:00:16;22.80;99.90
62573;DHT22;48626;51.678;5.806;2023-08-12T19:02:42;22.80;99.90
62573;DHT22;48626;51.678;5.806;2023-08-12T19:05:08;22.70;99.90
62573;DHT22;48626;51.678;5.806;2023-08-12T19:07:34;22.70;99.90
62573;DHT22;48626;51.678;5.806;2023-08-12T19:10:00;22.60;99.90
62573;DHT22;48626;51.678;5.806;2023-08-12T19:12:26;22.50;99.90
62573;DHT22;48626;51.678;5.806;2023-08-12T19:14:51;22.50;99.90
62573;DHT22;48626;51.678;5.806;2023-08-12T19:17:17;22.50;99.90